createdAt,value
2023-05-22T00:00:18.220Z,20.13
2023-05-22T00:01:50.172Z,20.13
2023-05-22T00:03:24.652Z,20.10
2023-05-22T00:04:59.060Z,20.07
2023-05-22T00:06:30.964Z,20.09
2023-05-22T00:08:02.951Z,20.00
2023-05-22T00:09:34.798Z,20.01
2023-05-22T00:11:06.629Z,20.01
2023-05-22T00:12:38.457Z,20.03
2023-05-22T00:14:10.294Z,20.01
2023-05-22T00:15:42.101Z,20.02
2023-05-22T00:17:15.195Z,20.01
2023-05-22T00:18:47.776Z,20.02
2023-05-22T00:20:19.883Z,20.01
2023-05-22T00:21:51.726Z,19.97
2023-05-22T00:23:25.177Z,19.92
2023-05-22T00:24:57.002Z,19.88
2023-05-22T00:26:28.938Z,19.88
2023-05-22T00:28:00.737Z,19.85
2023-05-22T00:29:32.618Z,19.87
2023-05-22T00:31:04.508Z,19.89
2023-05-22T00:32:36.447Z,19.87
2023-05-22T00:34:08.398Z,19.84
2023-05-22T00:35:40.720Z,19.84
2023-05-22T00:37:12.608Z,19.85
2023-05-22T00:38:44.661Z,19.82
2023-05-22T00:40:16.569Z,19.77
2023-05-22T00:41:48.525Z,19.74
2023-05-22T00:43:20.410Z,19.74
2023-05-22T00:44:52.261Z,19.74
2023-05-22T00:46:24.775Z,19.66
2023-05-22T00:47:56.946Z,19.65
2023-05-22T00:49:29.300Z,19.59
2023-05-22T00:51:01.175Z,19.54
2023-05-22T00:52:33.908Z,19.47
2023-05-22T00:54:05.960Z,19.48
2023-05-22T00:55:37.775Z,19.50
2023-05-22T00:57:09.620Z,19.49
2023-05-22T00:58:41.727Z,19.49
2023-05-22T01:00:13.899Z,19.50
2023-05-22T01:01:45.826Z,19.48
2023-05-22T01:03:17.740Z,19.47
2023-05-22T01:04:50.587Z,19.46
2023-05-22T01:06:22.429Z,19.48
2023-05-22T01:07:54.221Z,19.48
2023-05-22T01:09:26.142Z,19.43
2023-05-22T01:11:01.751Z,19.37
2023-05-22T01:12:42.934Z,19.35
2023-05-22T01:14:23.927Z,19.35
2023-05-22T01:15:58.872Z,19.35
2023-05-22T01:17:35.098Z,19.34
2023-05-22T01:19:23.692Z,19.35
2023-05-22T01:20:58.565Z,19.32
2023-05-22T01:22:51.884Z,19.31
2023-05-22T01:24:43.323Z,19.33
2023-05-22T01:26:33.828Z,19.28
2023-05-22T01:28:08.293Z,19.22
2023-05-22T01:29:43.549Z,19.22
2023-05-22T01:31:16.617Z,19.23
2023-05-22T01:32:48.882Z,19.20
2023-05-22T01:34:20.913Z,19.17
2023-05-22T01:35:55.755Z,19.12
2023-05-22T01:37:27.615Z,19.13
2023-05-22T01:39:00.963Z,19.14
2023-05-22T01:40:32.823Z,19.12
2023-05-22T01:42:05.251Z,19.13
2023-05-22T01:43:39.343Z,19.13
2023-05-22T01:45:12.114Z,19.11
2023-05-22T01:46:44.171Z,19.11
2023-05-22T01:48:16.469Z,19.09
2023-05-22T01:49:48.468Z,19.07
2023-05-22T01:51:34.051Z,19.07
2023-05-22T01:53:06.121Z,19.03
2023-05-22T01:54:40.145Z,18.96
2023-05-22T01:56:21.347Z,18.95
2023-05-22T01:57:56.375Z,18.91
2023-05-22T01:59:31.696Z,18.89
2023-05-22T02:01:06.794Z,18.89
2023-05-22T02:02:42.988Z,18.88
2023-05-22T02:04:14.996Z,18.86
2023-05-22T02:05:47.756Z,18.84
2023-05-22T02:07:20.158Z,18.80
2023-05-22T02:08:52.134Z,18.75
2023-05-22T02:10:24.163Z,18.72
2023-05-22T02:11:56.085Z,18.67
2023-05-22T02:13:27.945Z,18.68
2023-05-22T02:15:00.202Z,18.68
2023-05-22T02:16:32.767Z,18.65
2023-05-22T02:18:09.973Z,18.62
2023-05-22T02:19:41.953Z,18.58
2023-05-22T02:21:13.806Z,18.58
2023-05-22T02:22:46.648Z,18.58
2023-05-22T02:24:18.535Z,18.61
2023-05-22T02:25:51.010Z,18.62
2023-05-22T02:27:22.855Z,18.60
2023-05-22T02:28:54.811Z,18.58
2023-05-22T02:30:26.717Z,18.58
2023-05-22T02:31:59.715Z,18.56
2023-05-22T02:33:31.597Z,18.55
2023-05-22T02:35:03.673Z,18.53
2023-05-22T02:36:37.548Z,18.50
2023-05-22T02:38:09.608Z,18.49
2023-05-22T02:39:41.453Z,18.46
2023-05-22T02:41:13.332Z,18.45
2023-05-22T02:42:45.356Z,18.42
2023-05-22T02:44:17.557Z,18.40
2023-05-22T02:45:49.457Z,18.36
2023-05-22T02:47:22.542Z,18.35
2023-05-22T02:48:54.406Z,18.33
2023-05-22T02:50:26.287Z,18.31
2023-05-22T02:51:58.128Z,18.30
2023-05-22T02:53:29.967Z,18.28
2023-05-22T02:55:01.862Z,18.27
2023-05-22T02:56:33.816Z,18.25
2023-05-22T02:58:07.031Z,18.23
2023-05-22T02:59:39.110Z,18.20
2023-05-22T03:01:10.985Z,18.18
2023-05-22T03:02:42.960Z,18.18
2023-05-22T03:04:15.415Z,18.16
2023-05-22T03:05:47.328Z,18.18
2023-05-22T03:07:21.680Z,18.19
2023-05-22T03:08:53.706Z,18.14
2023-05-22T03:10:25.525Z,18.16
2023-05-22T03:11:57.328Z,18.18
2023-05-22T03:13:29.150Z,18.18
2023-05-22T03:15:01.140Z,18.15
2023-05-22T03:16:33.413Z,18.13
2023-05-22T03:18:05.331Z,18.14
2023-05-22T03:19:37.191Z,18.12
2023-05-22T03:21:09.412Z,18.08
2023-05-22T03:22:41.351Z,18.06
2023-05-22T03:24:13.393Z,18.05
2023-05-22T03:25:45.260Z,18.01
2023-05-22T03:27:17.516Z,17.99
2023-05-22T03:28:51.784Z,17.96
2023-05-22T03:30:23.926Z,17.97
2023-05-22T03:32:08.782Z,17.96
2023-05-22T03:33:41.184Z,17.97
2023-05-22T03:35:15.742Z,17.97
2023-05-22T03:36:47.687Z,17.95
2023-05-22T03:38:21.628Z,17.91
2023-05-22T03:39:53.452Z,17.90
2023-05-22T03:41:34.738Z,17.90
2023-05-22T03:43:07.523Z,17.87
2023-05-22T03:44:39.904Z,17.85
2023-05-22T03:46:11.880Z,17.81
2023-05-22T03:47:43.830Z,17.77
2023-05-22T03:49:15.881Z,17.78
2023-05-22T03:50:47.752Z,17.78
2023-05-22T03:52:19.645Z,17.78
2023-05-22T03:53:51.558Z,17.74
2023-05-22T03:55:23.464Z,17.61
2023-05-22T03:56:56.004Z,17.62
2023-05-22T03:58:27.916Z,17.57
2023-05-22T04:00:06.785Z,17.50
2023-05-22T04:01:46.776Z,17.47
2023-05-22T04:03:19.938Z,17.49
2023-05-22T04:04:51.951Z,17.52
2023-05-22T04:06:23.848Z,17.53
2023-05-22T04:07:55.919Z,17.50
2023-05-22T04:09:27.988Z,17.47
2023-05-22T04:11:03.434Z,17.46
2023-05-22T04:12:35.350Z,17.43
2023-05-22T04:14:07.311Z,17.42
2023-05-22T04:15:41.847Z,17.43
2023-05-22T04:17:13.782Z,17.44
2023-05-22T04:18:45.717Z,17.40
2023-05-22T04:20:18.311Z,17.32
2023-05-22T04:21:50.289Z,17.37
2023-05-22T04:23:22.986Z,17.36
2023-05-22T04:24:54.784Z,17.37
2023-05-22T04:26:29.819Z,17.35
2023-05-22T04:28:04.634Z,17.36
2023-05-22T04:29:41.830Z,17.40
2023-05-22T04:31:13.990Z,17.42
2023-05-22T04:32:45.955Z,17.37
2023-05-22T04:34:18.689Z,17.26
2023-05-22T04:35:51.192Z,17.17
2023-05-22T04:37:25.042Z,17.10
2023-05-22T04:38:56.988Z,17.09
2023-05-22T04:40:30.588Z,17.10
2023-05-22T04:42:06.165Z,17.10
2023-05-22T04:43:39.008Z,17.11
2023-05-22T04:45:11.082Z,17.12
2023-05-22T04:46:44.160Z,17.14
2023-05-22T04:48:16.600Z,17.18
2023-05-22T04:49:48.531Z,17.23
2023-05-22T04:51:20.558Z,17.20
2023-05-22T04:52:53.689Z,17.21
2023-05-22T04:54:25.561Z,17.20
2023-05-22T04:55:57.558Z,17.17
2023-05-22T04:57:29.984Z,17.07
2023-05-22T04:59:01.833Z,17.09
2023-05-22T05:00:34.136Z,16.98
2023-05-22T05:02:06.343Z,17.02
2023-05-22T05:03:38.500Z,16.99
2023-05-22T05:05:10.379Z,16.99
2023-05-22T05:06:43.557Z,16.94
2023-05-22T05:08:15.883Z,16.92
2023-05-22T05:09:47.825Z,16.92
2023-05-22T05:11:19.793Z,16.98
2023-05-22T05:12:51.934Z,17.04
2023-05-22T05:14:23.909Z,17.03
2023-05-22T05:15:56.103Z,17.06
2023-05-22T05:17:28.066Z,17.03
2023-05-22T05:19:00.051Z,17.10
2023-05-22T05:20:31.856Z,17.10
2023-05-22T05:22:03.862Z,17.04
2023-05-22T05:23:35.743Z,17.10
2023-05-22T05:25:11.436Z,17.13
2023-05-22T05:26:44.061Z,17.17
2023-05-22T05:28:16.064Z,17.13
2023-05-22T05:29:48.575Z,17.12
2023-05-22T05:31:35.039Z,17.13
2023-05-22T05:33:36.443Z,17.14
2023-05-22T05:35:31.236Z,17.26
2023-05-22T05:37:09.319Z,17.25
2023-05-22T05:38:42.190Z,17.34
2023-05-22T05:40:14.577Z,17.32
2023-05-22T05:41:51.162Z,17.29
2023-05-22T05:43:25.624Z,17.28
2023-05-22T05:45:00.585Z,17.28
2023-05-22T05:46:36.056Z,17.37
2023-05-22T05:48:08.246Z,17.46
2023-05-22T05:49:43.032Z,17.50
2023-05-22T05:51:14.989Z,17.59
2023-05-22T05:52:48.266Z,17.66
2023-05-22T05:54:22.674Z,17.67
2023-05-22T05:55:57.438Z,17.71
2023-05-22T05:57:30.248Z,17.76
2023-05-22T05:59:02.489Z,17.73
2023-05-22T06:00:43.512Z,17.80
2023-05-22T06:02:15.535Z,17.75
2023-05-22T06:03:48.645Z,17.67
2023-05-22T06:05:30.020Z,17.64
2023-05-22T06:07:14.725Z,17.61
2023-05-22T06:08:50.791Z,17.54
2023-05-22T06:10:30.215Z,17.55
2023-05-22T06:12:06.937Z,17.51
2023-05-22T06:13:38.886Z,17.53
2023-05-22T06:15:13.394Z,17.49
2023-05-22T06:16:46.138Z,17.49
2023-05-22T06:18:18.318Z,17.46
2023-05-22T06:19:50.157Z,17.46
2023-05-22T06:21:22.545Z,17.44
2023-05-22T06:22:54.673Z,17.45
2023-05-22T06:24:26.910Z,17.48
2023-05-22T06:25:59.206Z,17.47
2023-05-22T06:27:31.530Z,17.47
2023-05-22T06:29:03.434Z,17.52
2023-05-22T06:30:40.437Z,17.44
2023-05-22T06:32:17.096Z,17.30
2023-05-22T06:33:50.534Z,17.30
2023-05-22T06:35:22.491Z,17.21
2023-05-22T06:36:54.609Z,17.13
2023-05-22T06:38:31.579Z,17.12
2023-05-22T06:40:03.880Z,17.17
2023-05-22T06:41:56.487Z,17.13
2023-05-22T06:43:28.408Z,17.16
2023-05-22T06:45:06.422Z,17.10
2023-05-22T06:46:46.903Z,17.15
2023-05-22T06:48:25.214Z,17.17
2023-05-22T06:50:10.720Z,17.15
2023-05-22T06:51:43.425Z,17.23
2023-05-22T06:53:17.646Z,17.33
2023-05-22T06:54:49.566Z,17.38
2023-05-22T06:56:23.025Z,17.46
2023-05-22T06:58:23.944Z,17.51
2023-05-22T06:59:56.751Z,17.50
2023-05-22T07:01:51.633Z,17.39
2023-05-22T07:03:36.347Z,17.37
2023-05-22T07:05:40.619Z,17.36
2023-05-22T07:07:12.661Z,17.27
2023-05-22T07:08:44.783Z,17.30
2023-05-22T07:10:16.817Z,17.32
2023-05-22T07:11:49.345Z,17.30
2023-05-22T07:13:21.968Z,17.23
2023-05-22T07:14:54.433Z,17.21
2023-05-22T07:16:30.061Z,17.19
2023-05-22T07:18:02.571Z,17.13
2023-05-22T07:19:36.186Z,17.10
2023-05-22T07:21:09.487Z,17.16
2023-05-22T07:22:41.635Z,17.21
2023-05-22T07:24:13.913Z,17.29
2023-05-22T07:25:46.564Z,17.30
2023-05-22T07:27:20.622Z,17.37
2023-05-22T07:28:54.741Z,17.33
2023-05-22T07:30:26.765Z,17.39
2023-05-22T07:31:58.784Z,17.40
2023-05-22T07:33:32.146Z,17.44
2023-05-22T07:35:05.108Z,17.44
2023-05-22T07:36:38.287Z,17.34
2023-05-22T07:38:10.731Z,17.21
2023-05-22T07:39:44.131Z,17.14
2023-05-22T07:41:15.974Z,17.03
2023-05-22T07:42:48.014Z,16.97
2023-05-22T07:44:20.638Z,17.06
2023-05-22T07:45:54.437Z,17.12
2023-05-22T07:47:29.861Z,17.11
2023-05-22T07:49:02.032Z,17.10
2023-05-22T07:50:34.173Z,17.10
2023-05-22T07:52:06.226Z,17.15
2023-05-22T07:53:38.408Z,17.21
2023-05-22T07:55:10.464Z,17.32
2023-05-22T07:56:46.067Z,17.33
2023-05-22T07:58:20.096Z,17.36
2023-05-22T07:59:52.948Z,17.35
2023-05-22T08:01:24.784Z,17.35
2023-05-22T08:02:56.983Z,17.32
2023-05-22T08:04:30.311Z,17.39
2023-05-22T08:06:03.266Z,17.34
2023-05-22T08:07:35.280Z,17.39
2023-05-22T08:09:07.260Z,17.44
2023-05-22T08:12:14.057Z,17.50
2023-05-22T08:13:46.023Z,17.51
2023-05-22T08:15:17.940Z,17.55
2023-05-22T08:16:49.896Z,17.60
2023-05-22T08:18:22.727Z,17.60
2023-05-22T08:19:54.683Z,17.60
2023-05-22T08:21:26.669Z,17.54
2023-05-22T08:22:59.576Z,17.51
2023-05-22T08:24:31.662Z,17.45
2023-05-22T08:26:03.625Z,17.44
2023-05-22T08:27:35.566Z,17.46
2023-05-22T08:29:07.684Z,17.50
2023-05-22T08:30:39.920Z,17.57
2023-05-22T08:32:12.165Z,17.64
2023-05-22T08:33:44.181Z,17.67
2023-05-22T08:35:16.386Z,17.78
2023-05-22T08:36:49.329Z,17.70
2023-05-22T08:38:21.444Z,17.73
2023-05-22T08:39:53.272Z,17.71
2023-05-22T08:41:25.236Z,17.77
2023-05-22T08:42:58.215Z,17.67
2023-05-22T08:44:30.137Z,17.81
2023-05-22T08:46:06.094Z,17.91
2023-05-22T08:47:38.274Z,18.00
2023-05-22T08:49:10.722Z,18.08
2023-05-22T08:50:43.847Z,18.18
2023-05-22T08:52:26.659Z,18.27
2023-05-22T08:53:58.716Z,18.18
2023-05-22T08:55:30.853Z,18.19
2023-05-22T08:57:03.081Z,18.19
2023-05-22T08:58:35.512Z,18.18
2023-05-22T09:00:08.082Z,18.29
2023-05-22T09:01:40.023Z,18.40
2023-05-22T09:03:14.272Z,18.49
2023-05-22T09:04:46.199Z,18.63
2023-05-22T09:06:18.908Z,18.69
2023-05-22T09:07:50.764Z,18.72
2023-05-22T09:09:22.796Z,18.78
2023-05-22T09:10:57.993Z,18.85
2023-05-22T09:12:29.972Z,18.72
2023-05-22T09:14:08.856Z,18.76
2023-05-22T09:15:41.305Z,18.78
2023-05-22T09:17:15.269Z,18.75
2023-05-22T09:18:47.333Z,18.85
2023-05-22T09:20:19.232Z,18.92
2023-05-22T09:21:51.655Z,18.87
2023-05-22T09:23:24.524Z,18.93
2023-05-22T09:24:59.482Z,18.95
2023-05-22T09:26:33.224Z,19.04
2023-05-22T09:28:05.137Z,19.14
2023-05-22T09:29:49.929Z,19.24
2023-05-22T09:31:21.845Z,19.24
2023-05-22T09:32:53.773Z,19.30
2023-05-22T09:34:29.338Z,19.36
2023-05-22T09:36:01.849Z,19.38
2023-05-22T09:37:34.479Z,19.32
2023-05-22T09:39:06.777Z,19.38
2023-05-22T09:40:39.131Z,19.44
2023-05-22T09:42:15.294Z,19.61
2023-05-22T09:43:50.371Z,19.76
2023-05-22T09:45:25.426Z,19.90
2023-05-22T09:46:57.298Z,20.03
2023-05-22T09:48:29.343Z,20.13
2023-05-22T09:50:04.901Z,20.04
2023-05-22T09:51:36.717Z,20.20
2023-05-22T09:53:09.180Z,20.36
2023-05-22T09:54:44.438Z,20.44
2023-05-22T09:56:23.977Z,20.39
2023-05-22T09:58:03.599Z,20.55
2023-05-22T09:59:35.562Z,20.70
2023-05-22T10:01:10.783Z,20.75
2023-05-22T10:02:44.824Z,21.00
2023-05-22T10:04:16.834Z,21.20
2023-05-22T10:05:49.612Z,21.29
2023-05-22T10:07:22.654Z,21.23
2023-05-22T10:08:55.891Z,21.23
2023-05-22T10:10:27.905Z,21.46
2023-05-22T10:12:00.941Z,21.43
2023-05-22T10:13:32.848Z,21.55
2023-05-22T10:15:05.095Z,21.64
2023-05-22T10:16:40.234Z,21.72
2023-05-22T10:18:12.371Z,21.93
2023-05-22T10:19:46.052Z,21.80
2023-05-22T10:21:18.741Z,21.87
2023-05-22T10:22:50.660Z,21.91
2023-05-22T10:24:22.472Z,22.02
2023-05-22T10:25:54.393Z,22.12
2023-05-22T10:27:26.300Z,22.26
2023-05-22T10:29:11.284Z,22.32
2023-05-22T10:30:46.869Z,22.45
2023-05-22T10:32:40.589Z,22.66
2023-05-22T10:34:13.641Z,22.66
2023-05-22T10:35:51.510Z,22.70
2023-05-22T10:37:42.163Z,22.84
2023-05-22T10:39:23.974Z,22.64
2023-05-22T10:40:55.854Z,22.71
2023-05-22T10:42:31.293Z,22.87
2023-05-22T10:44:03.169Z,23.03
2023-05-22T10:45:36.950Z,23.01
2023-05-22T10:47:13.786Z,22.87
2023-05-22T10:48:49.707Z,22.96
2023-05-22T10:50:21.802Z,22.98
2023-05-22T10:51:57.365Z,23.13
2023-05-22T10:53:32.035Z,23.36
2023-05-22T10:55:10.577Z,23.53
2023-05-22T10:56:42.642Z,23.59
2023-05-22T10:58:15.054Z,23.50
2023-05-22T10:59:50.039Z,23.52
2023-05-22T11:01:22.843Z,23.58
2023-05-22T11:03:13.525Z,23.60
2023-05-22T11:04:49.491Z,23.83
2023-05-22T11:06:41.380Z,23.89
2023-05-22T11:08:25.822Z,24.09
2023-05-22T11:10:01.161Z,24.21
2023-05-22T11:11:33.111Z,24.26
2023-05-22T11:13:14.280Z,24.05
2023-05-22T11:14:53.463Z,24.24
2023-05-22T11:16:25.407Z,24.09
2023-05-22T11:17:58.151Z,24.03
2023-05-22T11:19:30.127Z,23.99
2023-05-22T11:21:02.115Z,24.07
2023-05-22T11:22:38.047Z,24.09
2023-05-22T11:24:10.540Z,24.24
2023-05-22T11:25:42.513Z,24.33
2023-05-22T11:27:14.657Z,24.40
2023-05-22T11:28:50.501Z,24.33
2023-05-22T11:30:25.521Z,24.49
2023-05-22T11:31:58.439Z,24.65
2023-05-22T11:33:30.634Z,24.57
2023-05-22T11:35:04.052Z,24.73
2023-05-22T11:36:36.234Z,24.96
2023-05-22T11:38:08.230Z,25.13
2023-05-22T11:39:40.156Z,25.03
2023-05-22T11:41:13.143Z,24.89
2023-05-22T11:42:45.402Z,25.01
2023-05-22T11:44:17.386Z,25.01
2023-05-22T11:45:49.422Z,25.09
2023-05-22T11:47:21.579Z,25.21
2023-05-22T11:48:54.353Z,25.23
2023-05-22T11:50:41.106Z,25.25
2023-05-22T11:52:18.397Z,25.30
2023-05-22T11:53:50.366Z,25.41
2023-05-22T11:55:23.161Z,25.41
2023-05-22T11:56:55.063Z,25.25
2023-05-22T11:58:30.421Z,25.41
2023-05-22T12:00:02.741Z,25.33
2023-05-22T12:01:43.887Z,25.33
2023-05-22T12:03:17.936Z,25.27
2023-05-22T12:04:54.248Z,25.18
2023-05-22T12:06:28.165Z,25.15
2023-05-22T12:08:00.078Z,25.14
2023-05-22T12:09:32.246Z,25.17
2023-05-22T12:12:37.580Z,25.41
2023-05-22T12:14:11.607Z,25.39
2023-05-22T12:15:43.618Z,25.51
2023-05-22T12:17:17.133Z,25.46
2023-05-22T12:18:52.450Z,25.53
2023-05-22T12:20:29.169Z,25.61
2023-05-22T12:22:01.336Z,25.51
2023-05-22T12:23:33.378Z,25.40
2023-05-22T12:25:05.545Z,25.46
2023-05-22T12:26:37.567Z,25.53
2023-05-22T12:28:09.572Z,25.48
2023-05-22T12:29:41.926Z,25.41
2023-05-22T12:31:23.068Z,25.54
2023-05-22T12:32:55.058Z,25.57
2023-05-22T12:34:26.987Z,25.63
2023-05-22T12:35:59.256Z,25.78
2023-05-22T12:37:33.486Z,25.92
2023-05-22T12:39:17.121Z,25.62
2023-05-22T12:40:49.826Z,25.65
2023-05-22T12:42:21.696Z,25.72
2023-05-22T12:43:53.579Z,25.88
2023-05-22T12:45:25.644Z,25.92
2023-05-22T12:46:57.560Z,25.95
2023-05-22T12:48:29.775Z,25.99
2023-05-22T12:50:01.817Z,26.07
2023-05-22T12:51:34.656Z,26.19
2023-05-22T12:53:06.636Z,26.17
2023-05-22T12:54:38.691Z,26.16
2023-05-22T12:56:10.564Z,26.18
2023-05-22T12:57:42.479Z,26.13
2023-05-22T12:59:14.369Z,26.04
2023-05-22T13:00:46.420Z,26.02
2023-05-22T13:02:18.487Z,25.92
2023-05-22T13:03:52.025Z,26.02
2023-05-22T13:05:24.046Z,26.06
2023-05-22T13:06:56.411Z,26.04
2023-05-22T13:08:28.461Z,25.92
2023-05-22T13:10:00.502Z,25.85
2023-05-22T13:11:32.744Z,26.01
2023-05-22T13:13:04.923Z,26.28
2023-05-22T13:14:39.272Z,25.98
2023-05-22T13:16:21.577Z,25.93
2023-05-22T13:17:53.606Z,25.88
2023-05-22T13:19:25.902Z,25.96
2023-05-22T13:21:00.268Z,26.01
2023-05-22T13:22:32.577Z,26.06
2023-05-22T13:24:04.906Z,26.07
2023-05-22T13:25:37.059Z,25.84
2023-05-22T13:27:09.274Z,25.95
2023-05-22T13:28:41.340Z,26.05
2023-05-22T13:30:13.341Z,26.15
2023-05-22T13:31:45.359Z,26.24
2023-05-22T13:33:17.317Z,26.37
2023-05-22T13:34:49.336Z,26.53
2023-05-22T13:36:21.543Z,26.61
2023-05-22T13:37:53.527Z,26.84
2023-05-22T13:39:25.409Z,26.97
2023-05-22T13:40:57.298Z,26.95
2023-05-22T13:42:29.337Z,26.95
2023-05-22T13:44:01.227Z,26.96
2023-05-22T13:45:33.195Z,26.94
2023-05-22T13:47:05.360Z,26.62
2023-05-22T13:48:37.270Z,26.76
2023-05-22T13:50:09.815Z,26.95
2023-05-22T13:51:41.855Z,27.00
2023-05-22T13:53:14.001Z,27.04
2023-05-22T13:54:45.973Z,26.94
2023-05-22T13:56:18.268Z,27.03
2023-05-22T13:57:50.268Z,26.92
2023-05-22T13:59:22.225Z,26.93
2023-05-22T14:00:54.334Z,26.84
2023-05-22T14:02:26.466Z,26.85
2023-05-22T14:03:58.599Z,26.85
2023-05-22T14:05:32.404Z,26.97
2023-05-22T14:07:04.580Z,27.08
2023-05-22T14:08:36.947Z,27.11
2023-05-22T14:10:15.042Z,27.04
2023-05-22T14:11:47.092Z,27.02
2023-05-22T14:13:19.108Z,26.92
2023-05-22T14:14:51.116Z,26.99
2023-05-22T14:16:23.195Z,27.06
2023-05-22T14:17:55.194Z,27.12
2023-05-22T14:19:27.219Z,27.14
2023-05-22T14:20:59.076Z,27.30
2023-05-22T14:22:36.125Z,27.31
2023-05-22T14:24:13.584Z,27.35
2023-05-22T14:25:45.751Z,27.28
2023-05-22T14:27:17.610Z,27.33
2023-05-22T14:28:49.538Z,27.49
2023-05-22T14:30:21.427Z,27.60
2023-05-22T14:31:54.735Z,27.60
2023-05-22T14:33:26.642Z,27.68
2023-05-22T14:34:58.558Z,27.45
2023-05-22T14:36:30.421Z,27.16
2023-05-22T14:38:02.479Z,27.14
2023-05-22T14:39:34.450Z,27.26
2023-05-22T14:41:06.508Z,27.33
2023-05-22T14:42:38.498Z,27.31
2023-05-22T14:44:10.449Z,27.43
2023-05-22T14:45:42.476Z,27.40
2023-05-22T14:47:14.498Z,27.34
2023-05-22T14:48:46.407Z,27.16
2023-05-22T14:50:20.287Z,27.11
2023-05-22T14:51:53.186Z,27.09
2023-05-22T14:53:25.061Z,27.31
2023-05-22T14:54:56.986Z,27.40
2023-05-22T14:56:28.843Z,27.13
2023-05-22T14:58:00.955Z,26.85
2023-05-22T14:59:34.153Z,26.67
2023-05-22T15:01:06.370Z,26.69
2023-05-22T15:02:38.413Z,26.67
2023-05-22T15:04:10.368Z,26.60
2023-05-22T15:05:42.519Z,26.48
2023-05-22T15:07:14.466Z,26.53
2023-05-22T15:08:46.506Z,26.38
2023-05-22T15:10:18.605Z,26.24
2023-05-22T15:11:51.445Z,26.22
2023-05-22T15:13:23.354Z,26.38
2023-05-22T15:14:55.304Z,26.53
2023-05-22T15:16:28.085Z,26.63
2023-05-22T15:18:02.989Z,26.78
2023-05-22T15:19:35.446Z,26.80
2023-05-22T15:21:07.742Z,26.73
2023-05-22T15:22:40.206Z,26.73
2023-05-22T15:24:12.204Z,26.65
2023-05-22T15:25:45.141Z,26.61
2023-05-22T15:27:17.611Z,26.62
2023-05-22T15:28:49.576Z,26.55
2023-05-22T15:30:23.735Z,26.61
2023-05-22T15:31:55.612Z,26.67
2023-05-22T15:33:27.531Z,26.69
2023-05-22T15:34:59.539Z,26.66
2023-05-22T15:36:33.167Z,26.79
2023-05-22T15:38:05.082Z,26.74
2023-05-22T15:39:37.067Z,26.66
2023-05-22T15:41:09.086Z,26.70
2023-05-22T15:42:41.098Z,26.57
2023-05-22T15:44:13.024Z,26.46
2023-05-22T15:45:47.147Z,26.34
2023-05-22T15:47:19.201Z,26.33
2023-05-22T15:48:51.207Z,26.29
2023-05-22T15:50:23.264Z,26.28
2023-05-22T15:51:55.226Z,26.29
2023-05-22T15:53:27.139Z,26.29
2023-05-22T15:54:59.160Z,26.27
2023-05-22T15:56:31.215Z,26.32
2023-05-22T15:58:03.343Z,26.42
2023-05-22T15:59:35.300Z,26.49
2023-05-22T16:01:08.184Z,26.42
2023-05-22T16:02:40.240Z,26.19
2023-05-22T16:04:12.298Z,26.16
2023-05-22T16:05:47.148Z,26.14
2023-05-22T16:07:20.389Z,26.16
2023-05-22T16:08:52.201Z,26.10
2023-05-22T16:10:24.101Z,26.19
2023-05-22T16:11:56.080Z,26.14
2023-05-22T16:13:28.364Z,26.05
2023-05-22T16:15:01.264Z,26.02
2023-05-22T16:16:34.555Z,25.84
2023-05-22T16:18:07.279Z,25.78
2023-05-22T16:19:39.502Z,25.70
2023-05-22T16:21:11.554Z,25.65
2023-05-22T16:22:48.611Z,25.48
2023-05-22T16:24:21.008Z,25.46
2023-05-22T16:25:52.840Z,25.45
2023-05-22T16:27:24.674Z,25.51
2023-05-22T16:28:56.659Z,25.59
2023-05-22T16:30:32.175Z,25.73
2023-05-22T16:32:04.590Z,25.79
2023-05-22T16:33:37.857Z,25.68
2023-05-22T16:35:10.120Z,25.59
2023-05-22T16:36:42.274Z,25.54
2023-05-22T16:38:14.581Z,25.51
2023-05-22T16:39:46.853Z,25.47
2023-05-22T16:41:18.879Z,25.33
2023-05-22T16:42:52.047Z,25.20
2023-05-22T16:44:23.924Z,25.06
2023-05-22T16:45:55.892Z,24.89
2023-05-22T16:47:28.860Z,24.83
2023-05-22T16:49:00.821Z,24.68
2023-05-22T16:50:32.739Z,24.74
2023-05-22T16:52:04.688Z,24.79
2023-05-22T16:53:38.363Z,24.73
2023-05-22T16:55:10.903Z,24.72
2023-05-22T16:56:43.034Z,24.68
2023-05-22T16:58:15.156Z,24.56
2023-05-22T16:59:47.392Z,24.52
2023-05-22T17:01:21.940Z,24.55
2023-05-22T17:02:54.248Z,24.50
2023-05-22T17:04:26.164Z,24.49
2023-05-22T17:05:58.253Z,24.44
2023-05-22T17:07:32.081Z,24.37
2023-05-22T17:09:04.183Z,24.41
2023-05-22T17:10:36.087Z,24.50
2023-05-22T17:12:09.156Z,24.61
2023-05-22T17:13:41.135Z,24.70
2023-05-22T17:15:13.106Z,24.71
2023-05-22T17:16:45.132Z,24.77
2023-05-22T17:18:20.036Z,24.84
2023-05-22T17:19:53.045Z,24.88
2023-05-22T17:21:25.114Z,24.84
2023-05-22T17:22:57.319Z,24.77
2023-05-22T17:24:30.385Z,24.64
2023-05-22T17:26:02.463Z,24.61
2023-05-22T17:27:36.653Z,24.53
2023-05-22T17:29:09.798Z,24.45
2023-05-22T17:30:43.029Z,24.39
2023-05-22T17:32:15.329Z,24.38
2023-05-22T17:33:47.371Z,24.32
2023-05-22T17:35:19.418Z,24.32
2023-05-22T17:36:51.533Z,24.33
2023-05-22T17:38:23.570Z,24.26
2023-05-22T17:39:55.830Z,24.28
2023-05-22T17:41:27.850Z,24.21
2023-05-22T17:43:02.663Z,24.22
2023-05-22T17:44:34.589Z,24.06
2023-05-22T17:46:06.773Z,23.93
2023-05-22T17:47:38.875Z,23.83
2023-05-22T17:49:11.452Z,23.82
2023-05-22T17:50:43.412Z,23.77
2023-05-22T17:52:15.412Z,23.77
2023-05-22T17:53:47.590Z,23.66
2023-05-22T17:55:21.213Z,23.48
2023-05-22T17:56:53.551Z,23.48
2023-05-22T17:58:25.561Z,23.44
2023-05-22T17:59:57.859Z,23.37
2023-05-22T18:01:32.127Z,23.27
2023-05-22T18:03:04.323Z,23.20
2023-05-22T18:04:36.602Z,23.14
2023-05-22T18:06:11.954Z,23.12
2023-05-22T18:07:44.000Z,23.10
2023-05-22T18:09:16.274Z,23.16
2023-05-22T18:10:49.302Z,23.14
2023-05-22T18:13:56.227Z,23.17
2023-05-22T18:15:28.288Z,23.18
2023-05-22T18:17:00.280Z,23.19
2023-05-22T18:18:32.176Z,23.13
2023-05-22T18:20:07.366Z,23.04
2023-05-22T18:21:39.374Z,23.04
2023-05-22T18:23:11.293Z,23.05
2023-05-22T18:24:43.579Z,23.02
2023-05-22T18:26:15.762Z,23.00
2023-05-22T18:27:47.767Z,22.97
2023-05-22T18:29:19.980Z,22.96
2023-05-22T18:30:52.800Z,22.95
2023-05-22T18:32:24.900Z,22.87
2023-05-22T18:33:57.033Z,22.83
2023-05-22T18:35:29.374Z,22.79
2023-05-22T18:37:01.495Z,22.74
2023-05-22T18:38:33.606Z,22.66
2023-05-22T18:40:08.141Z,22.62
2023-05-22T18:41:40.052Z,22.57
2023-05-22T18:43:12.136Z,22.57
2023-05-22T18:44:44.449Z,22.53
2023-05-22T18:46:17.215Z,22.44
2023-05-22T18:47:49.259Z,22.46
2023-05-22T18:49:21.268Z,22.43
2023-05-22T18:50:53.375Z,22.44
2023-05-22T18:52:25.324Z,22.34
2023-05-22T18:53:57.466Z,22.27
2023-05-22T18:55:29.400Z,22.23
2023-05-22T18:57:01.461Z,22.17
2023-05-22T18:58:33.327Z,22.11
2023-05-22T19:00:05.506Z,22.04
2023-05-22T19:01:37.466Z,21.92
2023-05-22T19:03:11.472Z,21.93
2023-05-22T19:04:43.788Z,21.91
2023-05-22T19:06:16.288Z,21.83
2023-05-22T19:07:48.192Z,21.76
2023-05-22T19:09:20.504Z,21.81
2023-05-22T19:10:52.789Z,21.75
2023-05-22T19:12:25.861Z,21.68
2023-05-22T19:13:57.920Z,21.67
2023-05-22T19:15:29.787Z,21.60
2023-05-22T19:17:01.757Z,21.64
2023-05-22T19:18:33.723Z,21.61
2023-05-22T19:20:08.971Z,21.61
2023-05-22T19:21:41.199Z,21.60
2023-05-22T19:23:13.995Z,21.57
2023-05-22T19:24:45.834Z,21.53
2023-05-22T19:26:17.841Z,21.45
2023-05-22T19:27:49.724Z,21.45
2023-05-22T19:29:21.647Z,21.43
2023-05-22T19:30:54.145Z,21.38
2023-05-22T19:32:26.328Z,21.37
2023-05-22T19:33:58.380Z,21.36
2023-05-22T19:35:30.316Z,21.33
2023-05-22T19:37:02.256Z,21.29
2023-05-22T19:38:40.176Z,21.30
2023-05-22T19:40:12.104Z,21.29
2023-05-22T19:41:44.012Z,21.26
2023-05-22T19:43:16.044Z,21.22
2023-05-22T19:44:47.998Z,21.21
2023-05-22T19:46:20.030Z,21.18
2023-05-22T19:47:52.236Z,21.15
2023-05-22T19:49:24.178Z,21.10
2023-05-22T19:50:56.219Z,21.05
2023-05-22T19:52:28.081Z,21.09
2023-05-22T19:54:09.701Z,21.07
2023-05-22T19:55:41.809Z,21.07
2023-05-22T19:57:13.675Z,21.07
2023-05-22T19:58:45.545Z,21.03
2023-05-22T20:00:17.522Z,20.98
2023-05-22T20:01:51.349Z,20.91
2023-05-22T20:03:26.699Z,20.91
2023-05-22T20:04:58.741Z,20.89
2023-05-22T20:06:33.338Z,20.88
2023-05-22T20:08:05.237Z,20.85